Granbury, TX

2:04 AM CST on March 02, 2015 (GMT -0600)
Harbor Lakes | Change Station
CLOSE
Current Station
Personal Weather Station
Location: Granbury, TX
Elevation: 702 ft
Nearby Weather Stations

Elev 702 ft 32.42 °N, 97.76 °W | Updated 23 seconds ago

Overcast
Overcast
35.2 °F
Feels Like 35 °F
N
1.0
Wind Variable Wind from NW
Gusts 4.0 mph

Today
High -- | Low -- °F
--% Chance of Precip.
Yesterday
High -- | Low -- °F
Precip. -- in
6:57 AM 6:29 PM
Waxing Gibbous, 90% visible
Pressure 30.42 in
Visibility 4.0 miles
Clouds Overcast 700 ft
Windchill 35 °F
Dew Point 34 °F
Humidity 94%
Rainfall 0.02 in
Snow Depth Not available.
UV 0 out of 12
Pollen 6.50 out of 12
Air Quality Not available.
Flu Activity Not available.
METAR KGDJ 020755Z AUTO 34006KT 4SM BR OVC007 03/01 A3042 RMK AO2 T00250013

More Conditions Fewer Conditions

Pressure 30.42 in
Visibility 4.0 miles
Clouds Overcast 700 ft
Windchill 35 °F
Dew Point 34 °F
Humidity 94%
Rainfall 0.02 in
Snow Depth Not available.
UV 0 out of 12
Pollen 6.50 out of 12
Air Quality Not available.
Flu Activity Not available.
METAR KGDJ 020755Z AUTO 34006KT 4SM BR OVC007 03/01 A3042 RMK AO2 T00250013

More Conditions Fewer Conditions

10-Day Weather Forecast

Almanac

Astronomy

Mar. 02, 2015 Rise Set
Actual Time
Civil Twilight
Nautical Twilight
Astronomical Twilight
Moon
Length of Visible Light
Length of Day
Tomorrow will be .
, % of the Moon is Illuminated

Today's Extremes

State Highs State Lows

Community

WunderPhotos

Upload Photos

1,801,747 photos uploaded!

WunderBlogs® & News

Nearby

Air Quality

  Air Quality AQ Index Pollutant
Not available.

Snow Depth

Station Depth Elevation

Earthquake Activity

City Distance Mag. Time & Date
Minimum magnitude displayed is 2.5.

Coastal Water Temperatures

Place Temperature

Nearby Weather Stations